createdAt,value
2018-05-10T00:00:00.196Z,14.72
2018-05-10T00:00:04.304Z,14.67
2018-05-10T00:00:08.322Z,14.71
2018-05-10T00:00:12.421Z,14.69
2018-05-10T00:00:16.523Z,14.72
2018-05-10T00:00:20.519Z,14.67
2018-05-10T00:00:24.743Z,14.69
2018-05-10T00:00:29.059Z,14.74
2018-05-10T00:00:33.159Z,14.64
2018-05-10T00:00:37.477Z,14.69
2018-05-10T00:00:41.814Z,14.69
2018-05-10T00:00:46.035Z,14.75
2018-05-10T00:00:50.256Z,14.69
2018-05-10T00:00:54.364Z,14.67
2018-05-10T00:00:58.700Z,14.74
2018-05-10T00:01:02.816Z,14.72
2018-05-10T00:01:07.028Z,14.69
2018-05-10T00:01:11.359Z,14.75
2018-05-10T00:01:15.687Z,14.67
2018-05-10T00:01:19.905Z,14.67
2018-05-10T00:01:24.303Z,14.67
2018-05-10T00:01:28.413Z,14.71
2018-05-10T00:01:32.728Z,14.66
2018-05-10T00:01:37.053Z,14.67
2018-05-10T00:01:41.262Z,14.66
2018-05-10T00:01:45.373Z,14.75
2018-05-10T00:01:49.590Z,14.72
2018-05-10T00:01:53.694Z,14.66
2018-05-10T00:01:57.801Z,14.64
2018-05-10T00:02:01.907Z,14.67
2018-05-10T00:02:05.905Z,14.75
2018-05-10T00:02:10.232Z,14.71
2018-05-10T00:02:14.554Z,14.71
2018-05-10T00:02:18.872Z,14.71
2018-05-10T00:02:23.085Z,14.71
2018-05-10T00:02:27.198Z,14.64
2018-05-10T00:02:31.407Z,14.78
2018-05-10T00:02:35.724Z,14.66
2018-05-10T00:02:39.933Z,14.67
2018-05-10T00:02:44.138Z,14.66
2018-05-10T00:02:48.355Z,14.66
2018-05-10T00:02:52.567Z,14.78
2018-05-10T00:02:56.884Z,14.71
2018-05-10T00:03:01.102Z,14.66
2018-05-10T00:03:05.157Z,14.69
2018-05-10T00:03:09.368Z,14.67
2018-05-10T00:03:13.593Z,14.66
2018-05-10T00:03:17.912Z,14.64
2018-05-10T00:03:22.233Z,14.66
2018-05-10T00:03:26.452Z,14.66
2018-05-10T00:03:30.555Z,14.67
2018-05-10T00:03:34.875Z,14.66
2018-05-10T00:03:38.976Z,14.63
2018-05-10T00:03:43.103Z,14.71
2018-05-10T00:03:47.425Z,14.66
2018-05-10T00:03:51.640Z,14.66
2018-05-10T00:03:55.846Z,14.64
2018-05-10T00:04:00.160Z,14.71
2018-05-10T00:04:04.259Z,14.66
2018-05-10T00:04:08.471Z,14.66
2018-05-10T00:04:12.682Z,14.71
2018-05-10T00:04:16.891Z,14.66
2018-05-10T00:04:21.097Z,14.71
2018-05-10T00:04:25.422Z,14.66
2018-05-10T00:04:29.414Z,14.72
2018-05-10T00:04:33.732Z,14.67
2018-05-10T00:04:37.940Z,14.63
2018-05-10T00:04:42.274Z,14.63
2018-05-10T00:04:46.373Z,14.71
2018-05-10T00:04:50.585Z,14.66
2018-05-10T00:04:54.803Z,14.67
2018-05-10T00:04:59.022Z,14.61
2018-05-10T00:05:03.231Z,14.64
2018-05-10T00:05:07.333Z,14.66
2018-05-10T00:05:11.653Z,14.72
2018-05-10T00:05:15.653Z,14.67
2018-05-10T00:05:19.757Z,14.71
2018-05-10T00:05:23.760Z,14.63
2018-05-10T00:05:27.973Z,14.67
2018-05-10T00:05:32.182Z,14.67
2018-05-10T00:05:36.395Z,14.61
2018-05-10T00:05:40.601Z,14.74
2018-05-10T00:05:44.808Z,14.61
2018-05-10T00:05:49.017Z,14.61
2018-05-10T00:05:53.222Z,14.61
2018-05-10T00:05:57.431Z,14.67
2018-05-10T00:06:01.642Z,14.69
2018-05-10T00:06:05.844Z,14.69
2018-05-10T00:06:10.056Z,14.67
2018-05-10T00:06:14.270Z,14.69
2018-05-10T00:06:18.373Z,14.71
2018-05-10T00:06:22.585Z,14.71
2018-05-10T00:06:26.790Z,14.71
2018-05-10T00:06:30.893Z,14.71
2018-05-10T00:06:34.994Z,14.74
2018-05-10T00:06:39.097Z,14.72
2018-05-10T00:06:43.094Z,14.66
2018-05-10T00:06:47.416Z,14.66
2018-05-10T00:06:51.524Z,14.66
2018-05-10T00:06:55.839Z,14.66
2018-05-10T00:07:00.229Z,14.69
2018-05-10T00:07:04.366Z,14.71
2018-05-10T00:07:08.575Z,14.61
2018-05-10T00:07:12.899Z,14.69
2018-05-10T00:07:17.010Z,14.72
2018-05-10T00:07:21.222Z,14.71
2018-05-10T00:07:25.433Z,14.66
2018-05-10T00:07:29.643Z,14.67
2018-05-10T00:07:33.866Z,14.69
2018-05-10T00:07:38.076Z,14.71
2018-05-10T00:07:42.287Z,14.63
2018-05-10T00:07:46.837Z,14.66
2018-05-10T00:07:51.606Z,14.59
2018-05-10T00:07:56.498Z,14.69
2018-05-10T00:08:00.925Z,14.64
2018-05-10T00:08:05.138Z,14.66
2018-05-10T00:08:09.363Z,14.64
2018-05-10T00:08:13.464Z,14.64
2018-05-10T00:08:17.809Z,14.64
2018-05-10T00:08:22.019Z,14.61
2018-05-10T00:08:26.230Z,14.63
2018-05-10T00:08:30.305Z,14.64
2018-05-10T00:08:34.623Z,14.6
2018-05-10T00:08:38.829Z,14.66
2018-05-10T00:08:43.037Z,14.63
2018-05-10T00:08:47.363Z,14.64
2018-05-10T00:08:51.572Z,14.63
2018-05-10T00:08:55.790Z,14.64
2018-05-10T00:08:59.896Z,14.67
2018-05-10T00:09:04.107Z,14.63
2018-05-10T00:09:08.328Z,14.64
2018-05-10T00:09:12.540Z,14.66
2018-05-10T00:09:16.762Z,14.69
2018-05-10T00:09:20.970Z,14.67
2018-05-10T00:09:25.292Z,14.71
2018-05-10T00:09:29.510Z,14.61
2018-05-10T00:09:33.831Z,14.69
2018-05-10T00:09:38.149Z,14.66
2018-05-10T00:09:42.032Z,14.66
2018-05-10T00:09:46.345Z,14.66
2018-05-10T00:09:50.548Z,14.72
2018-05-10T00:09:54.754Z,14.64
2018-05-10T00:09:58.965Z,14.61
2018-05-10T00:10:03.177Z,14.71
2018-05-10T00:10:07.286Z,14.67
2018-05-10T00:10:11.601Z,14.67
2018-05-10T00:10:15.988Z,14.69
2018-05-10T00:10:20.087Z,14.66
2018-05-10T00:10:24.474Z,14.67
2018-05-10T00:10:28.789Z,14.66
2018-05-10T00:10:32.904Z,14.63
2018-05-10T00:10:37.005Z,14.71
2018-05-10T00:10:41.210Z,14.66
2018-05-10T00:10:45.315Z,14.71
2018-05-10T00:10:49.413Z,14.66
2018-05-10T00:10:53.518Z,14.66
2018-05-10T00:10:57.723Z,14.67
2018-05-10T00:11:01.938Z,14.67
2018-05-10T00:11:06.148Z,14.61
2018-05-10T00:11:10.341Z,14.64
2018-05-10T00:11:14.660Z,14.66
2018-05-10T00:11:18.762Z,14.69
2018-05-10T00:11:22.865Z,14.67
2018-05-10T00:11:27.082Z,14.67
2018-05-10T00:11:31.315Z,14.67
2018-05-10T00:11:35.530Z,14.66
2018-05-10T00:11:39.734Z,14.74
2018-05-10T00:11:43.834Z,14.69
2018-05-10T00:11:48.152Z,14.74
2018-05-10T00:11:52.264Z,14.61
2018-05-10T00:11:56.471Z,14.66
2018-05-10T00:12:00.794Z,14.6
2018-05-10T00:12:05.004Z,14.71
2018-05-10T00:12:09.208Z,14.63
2018-05-10T00:12:13.522Z,14.63
2018-05-10T00:12:17.512Z,14.64
2018-05-10T00:12:21.616Z,14.61
2018-05-10T00:12:25.825Z,14.66
2018-05-10T00:12:30.040Z,14.71
2018-05-10T00:12:34.251Z,14.71
2018-05-10T00:12:38.573Z,14.6
2018-05-10T00:12:42.784Z,14.66
2018-05-10T00:12:46.887Z,14.71
2018-05-10T00:12:51.210Z,14.71
2018-05-10T00:12:55.544Z,14.69
2018-05-10T00:12:59.752Z,14.64
2018-05-10T00:13:03.966Z,14.66
2018-05-10T00:13:08.295Z,14.64
2018-05-10T00:13:12.511Z,14.66
2018-05-10T00:13:16.830Z,14.61
2018-05-10T00:13:21.150Z,14.66
2018-05-10T00:13:25.360Z,14.71
2018-05-10T00:13:29.686Z,14.67
2018-05-10T00:13:33.903Z,14.69
2018-05-10T00:13:38.219Z,14.66
2018-05-10T00:13:42.528Z,14.71
2018-05-10T00:13:46.839Z,14.74
2018-05-10T00:13:50.936Z,14.71
2018-05-10T00:13:55.142Z,14.66
2018-05-10T00:13:59.240Z,14.61
2018-05-10T00:14:03.233Z,14.69
2018-05-10T00:14:07.449Z,14.61
2018-05-10T00:14:11.749Z,14.61
2018-05-10T00:14:16.074Z,14.66
2018-05-10T00:14:20.393Z,14.66
2018-05-10T00:14:24.714Z,14.63
2018-05-10T00:14:28.820Z,14.71
2018-05-10T00:14:32.944Z,14.63
2018-05-10T00:14:37.153Z,14.61
2018-05-10T00:14:41.377Z,14.64
2018-05-10T00:14:45.484Z,14.64
2018-05-10T00:14:49.588Z,14.66
2018-05-10T00:14:53.808Z,14.66
2018-05-10T00:14:57.905Z,14.66
2018-05-10T00:15:02.121Z,14.66
2018-05-10T00:15:06.338Z,14.71
2018-05-10T00:15:10.549Z,14.59
2018-05-10T00:15:14.876Z,14.63
2018-05-10T00:15:18.974Z,14.61
2018-05-10T00:15:23.303Z,14.66
2018-05-10T00:15:27.514Z,14.67
2018-05-10T00:15:31.725Z,14.6
2018-05-10T00:15:35.931Z,14.67
2018-05-10T00:15:40.044Z,14.71
2018-05-10T00:15:44.368Z,14.63
2018-05-10T00:15:48.477Z,14.66
2018-05-10T00:15:52.686Z,14.72
2018-05-10T00:15:57.004Z,14.72
2018-05-10T00:16:01.212Z,14.61
2018-05-10T00:16:05.535Z,14.67
2018-05-10T00:16:09.543Z,14.69
2018-05-10T00:16:13.760Z,14.69
2018-05-10T00:16:17.859Z,14.66
2018-05-10T00:16:22.172Z,14.71
2018-05-10T00:16:26.380Z,14.61
2018-05-10T00:16:30.489Z,14.64
2018-05-10T00:16:34.481Z,14.67
2018-05-10T00:16:38.476Z,14.72
2018-05-10T00:16:42.697Z,14.61
2018-05-10T00:16:46.800Z,14.69
2018-05-10T00:16:51.019Z,14.69
2018-05-10T00:16:55.290Z,14.64
2018-05-10T00:16:59.626Z,14.63
2018-05-10T00:17:03.843Z,14.71
2018-05-10T00:17:08.164Z,14.66
2018-05-10T00:17:12.370Z,14.67
2018-05-10T00:17:16.577Z,14.72
2018-05-10T00:17:20.785Z,14.6
2018-05-10T00:17:24.998Z,14.63
2018-05-10T00:17:29.122Z,14.66
2018-05-10T00:17:33.224Z,14.72
2018-05-10T00:17:37.221Z,14.67
2018-05-10T00:17:41.333Z,14.66
2018-05-10T00:17:45.433Z,14.72
2018-05-10T00:17:49.745Z,14.67
2018-05-10T00:17:53.646Z,14.71
2018-05-10T00:17:57.853Z,14.67
2018-05-10T00:18:02.060Z,14.72
2018-05-10T00:18:06.161Z,14.57
2018-05-10T00:18:10.367Z,14.69
2018-05-10T00:18:14.690Z,14.67
2018-05-10T00:18:18.898Z,14.64
2018-05-10T00:18:23.225Z,14.67
2018-05-10T00:18:27.431Z,14.63
2018-05-10T00:18:31.649Z,14.61
2018-05-10T00:18:35.534Z,14.71
2018-05-10T00:18:39.638Z,14.72
2018-05-10T00:18:43.948Z,14.63
2018-05-10T00:18:48.158Z,14.64
2018-05-10T00:18:52.367Z,14.72
2018-05-10T00:18:56.365Z,14.66
2018-05-10T00:19:00.574Z,14.63
2018-05-10T00:19:04.682Z,14.63
2018-05-10T00:19:08.891Z,14.67
2018-05-10T00:19:12.895Z,14.67
2018-05-10T00:19:17.038Z,14.66
2018-05-10T00:19:21.360Z,14.59
2018-05-10T00:19:25.581Z,14.69
2018-05-10T00:19:29.903Z,14.66
2018-05-10T00:19:34.003Z,14.67
2018-05-10T00:19:38.328Z,14.66
2018-05-10T00:19:42.534Z,14.63
2018-05-10T00:19:46.309Z,14.69
2018-05-10T00:19:50.629Z,14.64
2018-05-10T00:19:54.735Z,14.64
2018-05-10T00:19:59.051Z,14.64
2018-05-10T00:20:03.153Z,14.67
2018-05-10T00:20:07.371Z,14.67
2018-05-10T00:20:11.367Z,14.71
2018-05-10T00:20:15.573Z,14.67
2018-05-10T00:20:19.783Z,14.53
2018-05-10T00:20:24.109Z,14.64
2018-05-10T00:20:28.424Z,14.71
2018-05-10T00:20:32.538Z,14.63
2018-05-10T00:20:36.534Z,14.57
2018-05-10T00:20:40.742Z,14.59
2018-05-10T00:20:45.058Z,14.57
2018-05-10T00:20:49.162Z,14.66
2018-05-10T00:20:53.375Z,14.57
2018-05-10T00:20:57.581Z,14.64
2018-05-10T00:21:01.792Z,14.54
2018-05-10T00:21:06.057Z,14.56
2018-05-10T00:21:10.384Z,14.61
2018-05-10T00:21:14.594Z,14.54
2018-05-10T00:21:18.915Z,14.57
2018-05-10T00:21:23.244Z,14.66
2018-05-10T00:21:27.344Z,14.6
2018-05-10T00:21:31.555Z,14.63
2018-05-10T00:21:35.766Z,14.61
2018-05-10T00:21:39.982Z,14.61
2018-05-10T00:21:44.302Z,14.57
2018-05-10T00:21:48.401Z,14.56
2018-05-10T00:21:52.610Z,14.56
2018-05-10T00:21:56.813Z,14.59
2018-05-10T00:22:01.043Z,14.54
2018-05-10T00:22:05.336Z,14.54
2018-05-10T00:22:09.586Z,14.49
2018-05-10T00:22:13.792Z,14.6
2018-05-10T00:22:17.897Z,14.59
2018-05-10T00:22:22.111Z,14.63
2018-05-10T00:22:26.245Z,14.56
2018-05-10T00:22:30.456Z,14.59
2018-05-10T00:22:34.564Z,14.59
2018-05-10T00:22:38.780Z,14.56
2018-05-10T00:22:43.090Z,14.57
2018-05-10T00:22:47.295Z,14.54
2018-05-10T00:22:51.399Z,14.52
2018-05-10T00:22:55.603Z,14.59
2018-05-10T00:22:59.825Z,14.57
2018-05-10T00:23:04.194Z,14.54
2018-05-10T00:23:08.289Z,14.61
2018-05-10T00:23:12.611Z,14.61
2018-05-10T00:23:16.710Z,14.56
2018-05-10T00:23:20.923Z,14.56
2018-05-10T00:23:25.237Z,14.63
2018-05-10T00:23:29.551Z,14.61
2018-05-10T00:23:33.765Z,14.52
2018-05-10T00:23:37.972Z,14.53
2018-05-10T00:23:42.194Z,14.6
2018-05-10T00:23:46.408Z,14.56
2018-05-10T00:23:50.617Z,14.54
2018-05-10T00:23:54.716Z,14.56
2018-05-10T00:23:59.032Z,14.42
2018-05-10T00:24:03.244Z,14.54
2018-05-10T00:24:07.456Z,14.54
2018-05-10T00:24:11.674Z,14.56
2018-05-10T00:24:16.245Z,14.48
2018-05-10T00:24:21.054Z,14.54
2018-05-10T00:24:25.916Z,14.54
2018-05-10T00:24:30.555Z,14.54
2018-05-10T00:24:34.775Z,14.54
2018-05-10T00:24:38.987Z,14.53
2018-05-10T00:24:43.205Z,14.44
2018-05-10T00:24:47.409Z,14.49
2018-05-10T00:24:51.627Z,14.53
2018-05-10T00:24:55.951Z,14.52
2018-05-10T00:25:00.050Z,14.44
2018-05-10T00:25:04.049Z,14.46
2018-05-10T00:25:08.151Z,14.46
2018-05-10T00:25:12.474Z,14.44
2018-05-10T00:25:16.582Z,14.45
2018-05-10T00:25:20.898Z,14.44
2018-05-10T00:25:25.213Z,14.54
2018-05-10T00:25:29.530Z,14.42
2018-05-10T00:25:33.850Z,14.45
2018-05-10T00:25:37.949Z,14.42
2018-05-10T00:25:41.939Z,14.46
2018-05-10T00:25:46.154Z,14.45
2018-05-10T00:25:50.256Z,14.44
2018-05-10T00:25:54.463Z,14.53
2018-05-10T00:25:58.775Z,14.44
2018-05-10T00:26:02.890Z,14.46
2018-05-10T00:26:07.006Z,14.53
2018-05-10T00:26:11.331Z,14.42
2018-05-10T00:26:15.541Z,14.45
2018-05-10T00:26:19.747Z,14.48
2018-05-10T00:26:23.854Z,14.45
2018-05-10T00:26:28.089Z,14.42
2018-05-10T00:26:32.403Z,14.42
2018-05-10T00:26:36.615Z,14.48
2018-05-10T00:26:40.830Z,14.42
2018-05-10T00:26:45.039Z,14.45
2018-05-10T00:26:49.150Z,14.41
2018-05-10T00:26:53.154Z,14.42
2018-05-10T00:26:57.270Z,14.46
2018-05-10T00:27:01.478Z,14.46
2018-05-10T00:27:05.582Z,14.48
2018-05-10T00:27:09.680Z,14.41
2018-05-10T00:27:13.788Z,14.53
2018-05-10T00:27:17.783Z,14.42
2018-05-10T00:27:21.989Z,14.39
2018-05-10T00:27:26.318Z,14.44
2018-05-10T00:27:30.524Z,14.46
2018-05-10T00:27:34.622Z,14.41
2018-05-10T00:27:38.829Z,14.39
2018-05-10T00:27:43.044Z,14.41
2018-05-10T00:27:47.377Z,14.49
2018-05-10T00:27:51.696Z,14.44
2018-05-10T00:27:56.019Z,14.41
2018-05-10T00:28:00.344Z,14.46
2018-05-10T00:28:04.447Z,14.46
2018-05-10T00:28:08.671Z,14.41
2018-05-10T00:28:12.879Z,14.44
2018-05-10T00:28:17.098Z,14.44
2018-05-10T00:28:21.426Z,14.39
2018-05-10T00:28:25.744Z,14.39
2018-05-10T00:28:29.952Z,14.45
2018-05-10T00:28:34.173Z,14.39
2018-05-10T00:28:38.395Z,14.44
2018-05-10T00:28:42.716Z,14.44
2018-05-10T00:28:47.042Z,14.44
2018-05-10T00:28:51.251Z,14.35
2018-05-10T00:28:55.561Z,14.41
2018-05-10T00:28:59.892Z,14.44
2018-05-10T00:29:04.210Z,14.41
2018-05-10T00:29:08.436Z,14.34
2018-05-10T00:29:12.761Z,14.38
2018-05-10T00:29:16.864Z,14.31
2018-05-10T00:29:20.975Z,14.36
2018-05-10T00:29:24.977Z,14.35
2018-05-10T00:29:29.198Z,14.35
2018-05-10T00:29:33.419Z,14.41
2018-05-10T00:29:37.630Z,14.38
2018-05-10T00:29:41.843Z,14.36
2018-05-10T00:29:46.049Z,14.38
2018-05-10T00:29:50.274Z,14.36
2018-05-10T00:29:54.483Z,14.24
2018-05-10T00:29:58.811Z,14.29
2018-05-10T00:30:03.125Z,14.26
2018-05-10T00:30:07.123Z,14.39
2018-05-10T00:30:11.010Z,14.3
2018-05-10T00:30:15.325Z,14.31
2018-05-10T00:30:19.530Z,14.26
2018-05-10T00:30:23.628Z,14.29
2018-05-10T00:30:27.733Z,14.29
2018-05-10T00:30:31.837Z,14.3
2018-05-10T00:30:36.055Z,14.29
2018-05-10T00:30:40.269Z,14.29
2018-05-10T00:30:44.473Z,14.3
2018-05-10T00:30:48.685Z,14.26
2018-05-10T00:30:53.001Z,14.29
2018-05-10T00:30:57.226Z,14.24
2018-05-10T00:31:01.428Z,14.27
2018-05-10T00:31:05.413Z,14.26
2018-05-10T00:31:09.628Z,14.26
2018-05-10T00:31:13.952Z,14.29
2018-05-10T00:31:17.945Z,14.3
2018-05-10T00:31:22.261Z,14.26
2018-05-10T00:31:26.581Z,14.31
2018-05-10T00:31:30.909Z,14.21
2018-05-10T00:31:35.124Z,14.3
2018-05-10T00:31:39.445Z,14.26
2018-05-10T00:31:43.655Z,14.34
2018-05-10T00:31:47.997Z,14.34
2018-05-10T00:31:52.320Z,14.26
2018-05-10T00:31:56.418Z,14.34
2018-05-10T00:32:00.631Z,14.23
2018-05-10T00:32:04.518Z,14.29
2018-05-10T00:32:08.729Z,14.29
2018-05-10T00:32:13.044Z,14.29
2018-05-10T00:32:17.146Z,14.26
2018-05-10T00:32:21.138Z,14.34
2018-05-10T00:32:25.304Z,14.31
2018-05-10T00:32:29.623Z,14.3
2018-05-10T00:32:33.844Z,14.29
2018-05-10T00:32:38.045Z,14.3
2018-05-10T00:32:42.360Z,14.24
2018-05-10T00:32:46.565Z,14.23
2018-05-10T00:32:50.665Z,14.3
2018-05-10T00:32:54.880Z,14.27
2018-05-10T00:32:59.199Z,14.21
2018-05-10T00:33:03.300Z,14.31
2018-05-10T00:33:07.656Z,14.23
2018-05-10T00:33:11.768Z,14.21
2018-05-10T00:33:15.979Z,14.29
2018-05-10T00:33:20.274Z,14.19
2018-05-10T00:33:24.265Z,14.23
2018-05-10T00:33:28.473Z,14.29
2018-05-10T00:33:32.682Z,14.21
2018-05-10T00:33:36.999Z,14.23
2018-05-10T00:33:41.298Z,14.21
2018-05-10T00:33:45.324Z,14.17
2018-05-10T00:33:49.532Z,14.17
2018-05-10T00:33:53.746Z,14.23
2018-05-10T00:33:58.075Z,14.21
2018-05-10T00:34:02.076Z,14.31
2018-05-10T00:34:06.073Z,14.26
2018-05-10T00:34:10.391Z,14.17
2018-05-10T00:34:14.592Z,14.21
2018-05-10T00:34:18.805Z,14.21
2018-05-10T00:34:23.152Z,14.16
2018-05-10T00:34:27.392Z,14.2
2018-05-10T00:34:31.599Z,14.23
2018-05-10T00:34:35.913Z,14.2
2018-05-10T00:34:40.242Z,14.21
2018-05-10T00:34:44.460Z,14.29
2018-05-10T00:34:48.666Z,14.23
2018-05-10T00:34:52.768Z,14.2
2018-05-10T00:34:56.757Z,14.23
2018-05-10T00:35:00.967Z,14.23
2018-05-10T00:35:04.963Z,14.23
2018-05-10T00:35:09.076Z,14.23
2018-05-10T00:35:13.283Z,14.21
2018-05-10T00:35:17.379Z,14.17
2018-05-10T00:35:21.722Z,14.19
2018-05-10T00:35:26.128Z,14.2
2018-05-10T00:35:30.343Z,14.2
2018-05-10T00:35:34.564Z,14.24
2018-05-10T00:35:38.776Z,14.21
2018-05-10T00:35:43.091Z,14.16
2018-05-10T00:35:47.189Z,14.2
2018-05-10T00:35:51.396Z,14.2
2018-05-10T00:35:55.489Z,14.17
2018-05-10T00:35:59.702Z,14.21
2018-05-10T00:36:03.809Z,14.21
2018-05-10T00:36:08.021Z,14.21
2018-05-10T00:36:12.232Z,14.2
2018-05-10T00:36:16.437Z,14.2
2018-05-10T00:36:20.645Z,14.26
2018-05-10T00:36:24.854Z,14.16
2018-05-10T00:36:29.120Z,14.17
2018-05-10T00:36:33.434Z,14.27
2018-05-10T00:36:37.547Z,14.17
2018-05-10T00:36:41.651Z,14.17
2018-05-10T00:36:45.968Z,14.29
2018-05-10T00:36:50.176Z,14.2
2018-05-10T00:36:54.273Z,14.17
2018-05-10T00:36:58.502Z,14.2
2018-05-10T00:37:02.723Z,14.16
2018-05-10T00:37:07.022Z,14.27
2018-05-10T00:37:11.235Z,14.17
2018-05-10T00:37:15.334Z,14.26
2018-05-10T00:37:19.237Z,14.21
2018-05-10T00:37:23.441Z,14.21
2018-05-10T00:37:27.550Z,14.13
2018-05-10T00:37:31.761Z,14.16
2018-05-10T00:37:35.969Z,14.27
2018-05-10T00:37:40.288Z,14.19
2018-05-10T00:37:44.494Z,14.21
2018-05-10T00:37:48.720Z,14.23
2018-05-10T00:37:52.928Z,14.21
2018-05-10T00:37:57.132Z,14.19
2018-05-10T00:38:01.344Z,14.21
2018-05-10T00:38:05.388Z,14.24
2018-05-10T00:38:09.711Z,14.23
2018-05-10T00:38:14.030Z,14.24
2018-05-10T00:38:18.354Z,14.19
2018-05-10T00:38:22.571Z,14.26
2018-05-10T00:38:26.800Z,14.27
2018-05-10T00:38:30.911Z,14.21
2018-05-10T00:38:35.016Z,14.17
2018-05-10T00:38:39.330Z,14.21
2018-05-10T00:38:43.540Z,14.13
2018-05-10T00:38:47.764Z,14.24
2018-05-10T00:38:52.094Z,14.16
2018-05-10T00:38:56.309Z,14.2
2018-05-10T00:39:00.414Z,14.23
2018-05-10T00:39:04.628Z,14.21
2018-05-10T00:39:08.725Z,14.21
2018-05-10T00:39:12.829Z,14.21
2018-05-10T00:39:17.047Z,14.23
2018-05-10T00:39:21.254Z,14.21
2018-05-10T00:39:25.578Z,14.2
2018-05-10T00:39:29.781Z,14.24
2018-05-10T00:39:34.159Z,14.2
2018-05-10T00:39:38.259Z,14.21
2018-05-10T00:39:42.474Z,14.29
2018-05-10T00:39:46.580Z,14.26
2018-05-10T00:39:50.897Z,14.17
2018-05-10T00:39:55.106Z,14.21
2018-05-10T00:39:59.312Z,14.19
2018-05-10T00:40:03.302Z,14.23
2018-05-10T00:40:07.405Z,14.2
2018-05-10T00:40:11.733Z,14.19
2018-05-10T00:40:16.129Z,14.19
2018-05-10T00:40:20.242Z,14.21
2018-05-10T00:40:24.570Z,14.13
2018-05-10T00:40:28.774Z,14.19
2018-05-10T00:40:33.096Z,14.26
2018-05-10T00:40:37.314Z,14.24
2018-05-10T00:40:41.521Z,14.16
2018-05-10T00:40:45.630Z,14.23
2018-05-10T00:40:49.954Z,14.21
2018-05-10T00:40:54.271Z,14.29
2018-05-10T00:40:58.479Z,14.19
2018-05-10T00:41:02.585Z,14.17
2018-05-10T00:41:06.795Z,14.21
2018-05-10T00:41:11.006Z,14.23
2018-05-10T00:41:15.121Z,14.2
2018-05-10T00:41:19.332Z,14.2
2018-05-10T00:41:23.654Z,14.26
2018-05-10T00:41:27.865Z,14.23
2018-05-10T00:41:32.186Z,14.19
2018-05-10T00:41:36.407Z,14.23
2018-05-10T00:41:40.623Z,14.21
2018-05-10T00:41:44.838Z,14.23
2018-05-10T00:41:48.940Z,14.21
2018-05-10T00:41:52.936Z,14.17
2018-05-10T00:41:57.049Z,14.19
2018-05-10T00:42:01.393Z,14.21
2018-05-10T00:42:05.492Z,14.21
2018-05-10T00:42:09.813Z,14.21
2018-05-10T00:42:13.911Z,14.19
2018-05-10T00:42:18.230Z,14.2
2018-05-10T00:42:22.329Z,14.2
2018-05-10T00:42:26.546Z,14.17
2018-05-10T00:42:30.765Z,14.17
2018-05-10T00:42:34.867Z,14.21
2018-05-10T00:42:39.077Z,14.23
2018-05-10T00:42:43.286Z,14.24
2018-05-10T00:42:47.385Z,14.23
2018-05-10T00:42:51.598Z,14.23
2018-05-10T00:42:55.804Z,14.3
2018-05-10T00:42:59.688Z,14.26
2018-05-10T00:43:03.951Z,14.23
2018-05-10T00:43:07.958Z,14.21
2018-05-10T00:43:12.221Z,14.23
2018-05-10T00:43:16.556Z,14.23
2018-05-10T00:43:20.761Z,14.2
2018-05-10T00:43:24.979Z,14.21
2018-05-10T00:43:29.195Z,14.19
2018-05-10T00:43:33.508Z,14.19
2018-05-10T00:43:37.718Z,14.23
2018-05-10T00:43:41.821Z,14.23
2018-05-10T00:43:46.142Z,14.23
2018-05-10T00:43:50.463Z,14.23
2018-05-10T00:43:54.677Z,14.2
2018-05-10T00:43:58.887Z,14.23
2018-05-10T00:44:03.246Z,14.2
2018-05-10T00:44:07.460Z,14.24
2018-05-10T00:44:11.674Z,14.17
2018-05-10T00:44:15.887Z,14.26
2018-05-10T00:44:20.105Z,14.2
2018-05-10T00:44:24.421Z,14.21
2018-05-10T00:44:28.406Z,14.19
2018-05-10T00:44:32.619Z,14.23
2018-05-10T00:44:36.823Z,14.17
2018-05-10T00:44:41.048Z,14.19
2018-05-10T00:44:45.363Z,14.19
2018-05-10T00:44:49.566Z,14.11
2018-05-10T00:44:53.880Z,14.17
2018-05-10T00:44:58.092Z,14.24
2018-05-10T00:45:02.316Z,14.23
2018-05-10T00:45:06.416Z,14.21
2018-05-10T00:45:10.301Z,14.24
2018-05-10T00:45:14.510Z,14.27
2018-05-10T00:45:18.831Z,14.2
2018-05-10T00:45:22.945Z,14.29
2018-05-10T00:45:27.259Z,14.26
2018-05-10T00:45:31.480Z,14.19
2018-05-10T00:45:35.803Z,14.21
2018-05-10T00:45:40.018Z,14.26
2018-05-10T00:45:44.232Z,14.21
2018-05-10T00:45:48.571Z,14.24
2018-05-10T00:45:52.777Z,14.13
2018-05-10T00:45:56.877Z,14.26
2018-05-10T00:46:01.191Z,14.19
2018-05-10T00:46:05.292Z,14.24
2018-05-10T00:46:09.504Z,14.16
2018-05-10T00:46:13.710Z,14.17
2018-05-10T00:46:17.931Z,14.21
2018-05-10T00:46:22.330Z,14.17
2018-05-10T00:46:26.650Z,14.19
2018-05-10T00:46:30.868Z,14.13
2018-05-10T00:46:35.191Z,14.23
2018-05-10T00:46:39.506Z,14.13
2018-05-10T00:46:43.722Z,14.23
2018-05-10T00:46:48.035Z,14.13
2018-05-10T00:46:52.144Z,14.23
2018-05-10T00:46:56.243Z,14.12
2018-05-10T00:47:00.236Z,14.12
2018-05-10T00:47:04.341Z,14.13
2018-05-10T00:47:08.663Z,14.16
2018-05-10T00:47:12.781Z,14.12
2018-05-10T00:47:16.990Z,14.12
2018-05-10T00:47:21.085Z,14.13
2018-05-10T00:47:25.191Z,14.12
2018-05-10T00:47:29.303Z,14.17
2018-05-10T00:47:33.628Z,14.13
2018-05-10T00:47:37.953Z,14.12
2018-05-10T00:47:42.061Z,14.16
2018-05-10T00:47:46.375Z,14.12
2018-05-10T00:47:50.580Z,14.17
2018-05-10T00:47:54.891Z,14.2
2018-05-10T00:47:58.993Z,14.11
2018-05-10T00:48:03.204Z,14.08
2018-05-10T00:48:07.314Z,14.09
2018-05-10T00:48:11.501Z,14.17
2018-05-10T00:48:15.719Z,14.04
2018-05-10T00:48:19.825Z,14.13
2018-05-10T00:48:24.034Z,14.06
2018-05-10T00:48:28.243Z,14.06
2018-05-10T00:48:32.453Z,14.13
2018-05-10T00:48:36.664Z,14.06
2018-05-10T00:48:40.889Z,14.04
2018-05-10T00:48:45.109Z,14.04
2018-05-10T00:48:49.312Z,14.12
2018-05-10T00:48:53.518Z,14.09
2018-05-10T00:48:57.729Z,14.06
2018-05-10T00:49:01.834Z,14.04
2018-05-10T00:49:06.155Z,14.06
2018-05-10T00:49:10.156Z,14.04
2018-05-10T00:49:14.372Z,14.11
2018-05-10T00:49:18.588Z,14.11
2018-05-10T00:49:22.590Z,14.12
2018-05-10T00:49:26.916Z,14.11
2018-05-10T00:49:31.240Z,14.05
2018-05-10T00:49:35.560Z,14.13
2018-05-10T00:49:39.769Z,14.12
2018-05-10T00:49:44.097Z,14.02
2018-05-10T00:49:48.420Z,14.13
2018-05-10T00:49:52.829Z,14.04
2018-05-10T00:49:57.146Z,14.05
2018-05-10T00:50:01.245Z,14.13
2018-05-10T00:50:05.576Z,14.05
2018-05-10T00:50:09.896Z,14.12
2018-05-10T00:50:14.225Z,14.13
2018-05-10T00:50:18.439Z,14.09
2018-05-10T00:50:22.650Z,14.01
2018-05-10T00:50:26.745Z,14.11
2018-05-10T00:50:31.072Z,14.09
2018-05-10T00:50:35.281Z,14.11
2018-05-10T00:50:39.489Z,14.11
2018-05-10T00:50:43.777Z,14.05
2018-05-10T00:50:47.984Z,14.09
2018-05-10T00:50:52.334Z,14.05
2018-05-10T00:50:56.666Z,14.05
2018-05-10T00:51:00.895Z,14.01
2018-05-10T00:51:05.377Z,14.09
2018-05-10T00:51:09.899Z,14.05
2018-05-10T00:51:14.413Z,14.05
2018-05-10T00:51:18.516Z,14.02
2018-05-10T00:51:22.743Z,14.04
2018-05-10T00:51:27.059Z,14.02
2018-05-10T00:51:31.266Z,14.04
2018-05-10T00:51:35.490Z,14.06
2018-05-10T00:51:39.809Z,14.05
2018-05-10T00:51:44.140Z,14.06
2018-05-10T00:51:48.354Z,14.02
2018-05-10T00:51:52.677Z,14.05
2018-05-10T00:51:56.991Z,14.01
2018-05-10T00:52:01.093Z,13.99
2018-05-10T00:52:05.365Z,14.06
2018-05-10T00:52:09.578Z,14.02
2018-05-10T00:52:13.787Z,14.02
2018-05-10T00:52:18.002Z,14.04
2018-05-10T00:52:22.114Z,14.04
2018-05-10T00:52:26.222Z,14.02
2018-05-10T00:52:30.321Z,14.04
2018-05-10T00:52:34.532Z,14.04
2018-05-10T00:52:38.740Z,14.04
2018-05-10T00:52:43.056Z,14.01
2018-05-10T00:52:47.372Z,14.04
2018-05-10T00:52:51.697Z,13.9
2018-05-10T00:52:55.904Z,14.04
2018-05-10T00:53:00.227Z,14.02
2018-05-10T00:53:04.435Z,14.09
2018-05-10T00:53:08.671Z,14.06
2018-05-10T00:53:12.879Z,13.99
2018-05-10T00:53:17.101Z,14.05
2018-05-10T00:53:21.337Z,14.04
2018-05-10T00:53:25.552Z,14.08
2018-05-10T00:53:29.874Z,13.98
2018-05-10T00:53:34.093Z,13.99
2018-05-10T00:53:38.423Z,14.11
2018-05-10T00:53:42.630Z,13.96
2018-05-10T00:53:46.836Z,13.96
2018-05-10T00:53:51.159Z,14.04
2018-05-10T00:53:55.375Z,14.04
2018-05-10T00:53:59.693Z,13.93
2018-05-10T00:54:03.810Z,13.99
2018-05-10T00:54:07.929Z,13.93
2018-05-10T00:54:12.133Z,14.06
2018-05-10T00:54:16.340Z,14.01
2018-05-10T00:54:20.338Z,13.98